Time;durP1;ratioP1;P1;durP2;ratioP2;P2;SDS_P1;SDS_P2;PMS_P1;PMS_P2;Temp;Humidity;BMP_temperature;BMP_pressure;BME280_temperature;BME280_humidity;BME280_pressure;Samples;Min_cycle;Max_cycle;Signal;HPM_P1;HPM_P2
2023/01/11 00:00:30;;;;;;;6.90;1.60;;;;;;;-3.04;58.28;101712.74;104980;1263;61352;-67
2023/01/11 02:07:02;;;;;;;4.60;1.50;;;;;;;-4.01;55.31;101780.80;103271;1280;604364;-56
2023/01/11 02:10:03;;;;;;;5.80;1.90;;;;;;;-3.68;54.46;101782.98;104649;1267;74736;-57
2023/01/11 02:12:33;;;;;;;9.70;2.00;;;;;;;-3.73;54.53;101784.33;104897;1267;60358;-59
2023/01/11 02:15:00;;;;;;;7.50;2.00;;;;;;;-3.81;54.47;101784.30;104766;1269;72288;-59
2023/01/11 02:17:27;;;;;;;6.10;1.60;;;;;;;-3.89;54.48;101785.66;104880;1267;71260;-59
2023/01/11 02:20:11;;;;;;;5.20;1.80;;;;;;;-3.97;54.85;101782.57;104781;1267;75366;-59
2023/01/11 02:23:06;;;;;;;8.90;2.00;;;;;;;-4.02;55.02;101789.25;104690;1267;61224;-59
2023/01/11 02:25:51;;;;;;;12.90;1.90;;;;;;;-4.06;55.14;101785.45;104965;1264;61133;-56
2023/01/11 02:28:26;;;;;;;7.80;2.20;;;;;;;-4.11;55.03;101778.91;104868;1269;72908;-57
2023/01/11 02:31:09;;;;;;;6.60;2.00;;;;;;;-4.16;54.93;101780.63;104926;1269;70389;-57
2023/01/11 02:33:55;;;;;;;6.10;1.90;;;;;;;-4.23;54.85;101789.50;104985;1264;73608;-57
2023/01/11 02:36:34;;;;;;;6.10;2.30;;;;;;;-4.30;55.21;101792.05;105137;1264;60858;-57
2023/01/11 02:39:09;;;;;;;13.50;2.60;;;;;;;-4.32;55.28;101798.72;105008;1261;60966;-57
2023/01/11 02:47:27;;;;;;;8.00;2.30;;;;;;;-4.49;55.27;101794.36;105157;1263;73598;-56
2023/01/11 02:50:36;;;;;;;8.00;2.00;;;;;;;-4.56;55.19;101782.00;105070;1262;61218;-57
2023/01/11 02:53:09;;;;;;;5.40;1.90;;;;;;;-4.66;55.47;101785.55;105014;1260;60997;-57
2023/01/11 02:55:40;;;;;;;5.30;1.80;;;;;;;-4.68;55.41;101789.98;105081;1265;73909;-58
2023/01/11 02:58:08;;;;;;;5.00;2.00;;;;;;;-4.70;55.32;101791.52;105049;1266;71024;-57
2023/01/11 03:00:39;;;;;;;5.60;2.50;;;;;;;-4.73;55.23;101791.84;105053;1273;73361;-59
2023/01/11 03:03:17;;;;;;;5.10;1.60;;;;;;;-4.77;55.16;101784.45;104955;1266;61044;-61
2023/01/11 03:05:52;;;;;;;5.70;2.40;;;;;;;-4.82;54.84;101787.67;105137;1263;61049;-60
2023/01/11 03:08:28;;;;;;;10.60;2.10;;;;;;;-4.89;54.84;101789.86;105016;1265;72853;-59
2023/01/11 03:11:10;;;;;;;7.00;2.50;;;;;;;-4.95;54.91;101792.73;105061;1266;70831;-60
2023/01/11 03:14:03;;;;;;;8.60;2.60;;;;;;;-4.98;55.14;101792.02;104954;1266;73569;-60
2023/01/11 03:17:14;;;;;;;10.80;2.70;;;;;;;-5.00;54.90;101793.71;104948;1265;62051;-60
2023/01/11 03:19:50;;;;;;;7.40;2.30;;;;;;;-5.04;54.76;101794.73;104757;1267;61008;-61
2023/01/11 03:22:25;;;;;;;7.20;2.50;;;;;;;-5.10;54.72;101792.80;105397;1263;73724;-61
2023/01/11 03:24:57;;;;;;;6.60;1.80;;;;;;;-5.14;55.15;101802.35;105047;1267;71207;-60
2023/01/11 03:27:31;;;;;;;7.40;2.30;;;;;;;-5.17;55.31;101804.89;105135;1266;73420;-60
2023/01/11 03:30:08;;;;;;;6.80;2.30;;;;;;;-5.19;55.33;101803.50;105072;1264;61136;-60
2023/01/11 03:32:53;;;;;;;4.10;1.40;;;;;;;-5.18;55.35;101802.33;105058;1264;60383;-60
2023/01/11 03:35:25;;;;;;;5.20;1.50;;;;;;;-5.07;55.37;101801.20;105054;1264;75235;-60
2023/01/11 03:38:07;;;;;;;7.80;1.60;;;;;;;-4.94;55.24;101808.14;104717;1264;71244;-60
2023/01/11 03:40:53;;;;;;;13.00;2.80;;;;;;;-4.83;55.22;101810.95;104760;1266;73662;-60
2023/01/11 03:43:20;;;;;;;5.80;2.10;;;;;;;-4.71;54.97;101810.01;105038;1263;60310;-61
2023/01/11 03:45:55;;;;;;;10.40;2.40;;;;;;;-4.60;54.80;101812.80;105071;1264;61251;-61
2023/01/11 03:48:26;;;;;;;6.50;2.00;;;;;;;-4.48;54.51;101812.70;105058;1266;72669;-61
2023/01/11 03:50:53;;;;;;;6.40;1.20;;;;;;;-4.40;54.03;101813.42;105233;1270;70138;-59
2023/01/11 03:53:21;;;;;;;10.70;3.80;;;;;;;-4.40;53.87;101819.77;104939;1268;73548;-61
2023/01/11 03:55:50;;;;;;;6.90;2.40;;;;;;;-4.43;53.81;101820.60;105055;1268;59678;-61
2023/01/11 03:58:17;;;;;;;6.40;2.20;;;;;;;-4.48;53.67;101822.12;104948;1261;61307;-60
2023/01/11 04:00:44;;;;;;;10.60;3.30;;;;;;;-4.50;53.82;101819.55;105768;1260;74023;-60
2023/01/11 04:03:11;;;;;;;6.70;3.10;;;;;;;-4.53;53.72;101819.19;105453;1254;69450;-60
2023/01/11 04:05:39;;;;;;;4.50;1.40;;;;;;;-4.62;53.64;101827.35;105594;1254;73624;-59
2023/01/11 04:08:06;;;;;;;10.70;4.60;;;;;;;-4.74;53.58;101822.83;105575;1259;61265;-63
2023/01/11 04:10:33;;;;;;;6.90;2.80;;;;;;;-4.86;53.67;101812.98;106233;1254;61378;-59
2023/01/11 04:13:00;;;;;;;10.40;3.70;;;;;;;-4.96;54.14;101808.46;105595;1257;73554;-62
2023/01/11 04:15:29;;;;;;;7.90;1.90;;;;;;;-5.07;54.56;101803.95;105617;1259;71158;-61
2023/01/11 04:18:03;;;;;;;8.00;1.70;;;;;;;-5.16;55.02;101806.44;105615;1266;73552;-61
2023/01/11 04:20:32;;;;;;;5.80;2.00;;;;;;;-5.24;55.58;101806.89;105577;1255;61260;-61
2023/01/11 04:22:59;;;;;;;4.70;1.10;;;;;;;-5.28;56.14;101814.73;105558;1254;60257;-62
2023/01/11 04:25:26;;;;;;;7.70;2.60;;;;;;;-5.32;56.26;101821.02;105563;1260;73953;-61
2023/01/11 04:27:53;;;;;;;8.20;2.70;;;;;;;-5.38;56.39;101825.25;105473;1257;71097;-61
2023/01/11 04:30:20;;;;;;;7.00;2.70;;;;;;;-5.45;56.62;101823.46;105436;1254;74674;-61
2023/01/11 04:32:47;;;;;;;7.80;2.70;;;;;;;-5.49;56.74;101824.64;105590;1258;61341;-61
2023/01/11 04:35:14;;;;;;;8.40;2.10;;;;;;;-5.50;56.75;101826.67;105520;1254;61163;-60
2023/01/11 04:37:41;;;;;;;4.50;1.90;;;;;;;-5.51;57.03;101828.71;105412;1259;73761;-61
2023/01/11 04:40:09;;;;;;;6.40;2.30;;;;;;;-5.43;57.65;101839.23;105420;1260;71124;-61
2023/01/11 04:42:36;;;;;;;17.90;2.90;;;;;;;-5.33;57.65;101844.09;105549;1255;73430;-61
2023/01/11 04:45:04;;;;;;;7.40;1.80;;;;;;;-5.23;57.47;101849.83;105559;1254;61990;-62
2023/01/11 04:47:31;;;;;;;5.00;1.90;;;;;;;-5.14;56.88;101860.36;105662;1259;60104;-61
2023/01/11 04:49:58;;;;;;;6.20;2.30;;;;;;;-5.07;56.46;101865.72;105454;1259;74049;-61
2023/01/11 04:52:28;;;;;;;8.70;3.40;;;;;;;-5.01;56.25;101864.05;105600;1260;71218;-61
2023/01/11 04:54:55;;;;;;;9.60;1.90;;;;;;;-4.89;55.94;101865.16;105564;1259;73741;-60
2023/01/11 04:57:24;;;;;;;8.00;1.70;;;;;;;-4.84;55.82;101865.73;105591;1259;60424;-61
2023/01/11 04:59:51;;;;;;;7.40;1.80;;;;;;;-4.84;55.68;101863.67;105541;1255;61044;-61
2023/01/11 05:02:18;;;;;;;6.20;1.90;;;;;;;-4.85;55.61;101863.50;105894;1260;73900;-60
2023/01/11 05:04:45;;;;;;;7.50;3.20;;;;;;;-4.87;55.52;101859.54;105503;1260;70980;-61
2023/01/11 05:07:12;;;;;;;7.00;2.30;;;;;;;-4.90;55.41;101860.04;105754;1256;73023;-61
2023/01/11 05:09:39;;;;;;;9.60;3.00;;;;;;;-4.97;55.28;101859.12;105826;1254;61036;-62
2023/01/11 05:12:06;;;;;;;6.40;2.50;;;;;;;-5.07;55.06;101851.35;105645;1254;60467;-61
2023/01/11 05:14:34;;;;;;;9.50;2.00;;;;;;;-5.14;55.33;101852.31;105557;1259;73869;-61
2023/01/11 05:17:01;;;;;;;8.20;1.90;;;;;;;-5.19;55.35;101847.64;105551;1260;71110;-61
2023/01/11 05:19:28;;;;;;;7.70;3.20;;;;;;;-5.21;55.38;101848.49;105434;1264;73737;-61
2023/01/11 05:21:55;;;;;;;7.90;2.30;;;;;;;-5.26;55.25;101854.27;105658;1254;61059;-61
2023/01/11 05:24:25;;;;;;;5.50;2.00;;;;;;;-5.31;55.22;101858.50;105614;1253;61436;-62
2023/01/11 05:26:52;;;;;;;7.60;3.10;;;;;;;-5.36;55.12;101858.78;105544;1254;72997;-61
2023/01/11 05:29:20;;;;;;;6.40;1.80;;;;;;;-5.41;55.14;101860.79;105502;1256;73371;-61
2023/01/11 05:31:47;;;;;;;7.30;2.00;;;;;;;-5.44;55.37;101866.41;105531;1260;73183;-61
2023/01/11 05:34:15;;;;;;;6.10;1.90;;;;;;;-5.47;55.48;101868.44;105350;1259;60617;-59
2023/01/11 05:36:42;;;;;;;11.90;2.50;;;;;;;-5.51;55.43;101870.27;107097;1254;60978;-60
2023/01/11 05:39:12;;;;;;;4.60;0.80;;;;;;;-5.55;55.47;101879.13;105504;1259;73922;-61
2023/01/11 05:41:39;;;;;;;6.20;1.60;;;;;;;-5.45;55.42;101877.17;105585;1264;71108;-59
2023/01/11 05:46:56;;;;;;;6.30;2.60;;;;;;;-5.21;54.82;101888.01;105556;1258;61730;-56
2023/01/11 05:49:24;;;;;;;9.10;2.10;;;;;;;-5.14;54.80;101877.98;105494;1255;61145;-59
2023/01/11 05:51:50;;;;;;;5.00;1.20;;;;;;;-5.04;54.58;101879.95;105538;1259;72881;-57
2023/01/11 05:54:18;;;;;;;6.80;2.10;;;;;;;-4.94;54.18;101881.91;105450;1260;71193;-57
2023/01/11 05:56:45;;;;;;;4.20;1.30;;;;;;;-4.89;53.89;101884.86;105501;1259;73818;-58
2023/01/11 05:59:12;;;;;;;5.30;2.30;;;;;;;-4.85;53.76;101889.34;105728;1254;60553;-58
2023/01/11 06:03:11;;;;;;;11.30;2.50;;;;;;;-5.01;54.20;101897.76;103767;1294;603459;-66
2023/01/11 06:05:44;;;;;;;7.10;2.50;;;;;;;-4.91;53.95;101894.09;105888;1267;60714;-64
2023/01/11 06:08:11;;;;;;;4.20;1.40;;;;;;;-4.91;53.87;101896.14;105579;1273;63476;-64
2023/01/11 06:10:38;;;;;;;5.80;2.20;;;;;;;-4.98;53.70;101891.98;106706;1267;73354;-66
2023/01/11 06:16:12;;;;;;;8.70;1.90;;;;;;;-5.12;53.72;101898.52;104278;1271;327327;-66
2023/01/11 06:18:47;;;;;;;7.00;2.90;;;;;;;-5.22;53.75;101898.60;104635;1264;62564;-65
2023/01/11 06:21:14;;;;;;;7.10;2.70;;;;;;;-5.30;54.16;101898.70;104912;1266;62188;-64
2023/01/11 06:23:43;;;;;;;6.50;2.30;;;;;;;-5.36;54.28;101892.65;104735;1266;74575;-66
2023/01/11 06:26:13;;;;;;;12.10;2.20;;;;;;;-5.44;54.40;101892.23;104973;1267;72835;-65
2023/01/11 06:28:40;;;;;;;5.60;2.10;;;;;;;-5.45;54.75;101899.40;104876;1267;73631;-65
2023/01/11 06:31:07;;;;;;;7.80;1.70;;;;;;;-5.46;54.88;101899.91;104970;1263;61202;-67
2023/01/11 06:33:34;;;;;;;5.60;1.90;;;;;;;-5.52;54.82;101896.94;104853;1263;62434;-67
2023/01/11 06:36:06;;;;;;;7.90;2.20;;;;;;;-5.59;54.64;101896.70;104851;1261;74217;-66
2023/01/11 06:38:33;;;;;;;6.00;1.40;;;;;;;-5.63;54.66;101893.05;105012;1266;72159;-67
2023/01/11 06:41:01;;;;;;;8.20;4.20;;;;;;;-5.60;54.45;101895.14;104976;1268;74753;-65
2023/01/11 06:43:29;;;;;;;5.50;1.80;;;;;;;-5.49;54.39;101897.14;104771;1267;62780;-66
2023/01/11 06:45:56;;;;;;;7.00;2.60;;;;;;;-5.40;54.09;101892.45;105260;1266;61268;-66
2023/01/11 06:48:23;;;;;;;5.10;1.30;;;;;;;-5.35;53.82;101898.30;104943;1262;73805;-65
2023/01/11 06:50:52;;;;;;;7.10;2.00;;;;;;;-5.28;53.74;101904.89;104683;1266;71630;-66
2023/01/11 06:53:19;;;;;;;5.80;1.60;;;;;;;-5.22;53.61;101913.48;104850;1264;74890;-66
2023/01/11 06:55:50;;;;;;;8.40;2.30;;;;;;;-5.20;53.48;101916.94;105007;1266;62429;-66
2023/01/11 06:58:18;;;;;;;6.80;1.70;;;;;;;-5.17;53.34;101918.33;104939;1261;62415;-68
2023/01/11 07:00:45;;;;;;;6.00;1.90;;;;;;;-5.16;53.12;101915.27;104736;1262;75112;-65
2023/01/11 07:03:12;;;;;;;5.90;2.20;;;;;;;-5.14;52.96;101912.04;104676;1264;73765;-66
2023/01/11 07:05:39;;;;;;;8.20;3.30;;;;;;;-5.17;53.16;101913.89;104827;1268;73537;-66
2023/01/11 07:08:06;;;;;;;9.10;3.20;;;;;;;-5.14;53.13;101916.64;105444;1263;61405;-66
2023/01/11 07:10:33;;;;;;;6.90;2.50;;;;;;;-5.15;52.90;101911.67;104504;1267;62300;-65
2023/01/11 07:13:01;;;;;;;4.70;1.90;;;;;;;-5.21;52.94;101905.97;104537;1268;75100;-66
2023/01/11 07:15:28;;;;;;;8.50;2.90;;;;;;;-5.28;53.00;101901.80;104925;1264;72448;-66
2023/01/11 07:17:56;;;;;;;10.50;3.10;;;;;;;-5.36;53.06;101899.83;107578;1263;74744;-65
2023/01/11 07:20:23;;;;;;;5.20;1.60;;;;;;;-5.44;52.98;101904.04;105747;1265;62717;-67
2023/01/11 07:22:50;;;;;;;10.60;3.20;;;;;;;-5.50;53.02;101903.80;105327;1263;61465;-67
2023/01/11 07:25:17;;;;;;;6.10;2.40;;;;;;;-5.55;52.86;101897.40;104919;1262;73880;-66
2023/01/11 07:27:44;;;;;;;5.30;2.10;;;;;;;-5.62;52.86;101906.58;104681;1265;72462;-66
2023/01/11 07:30:12;;;;;;;8.20;4.00;;;;;;;-5.68;52.83;101907.70;104651;1264;72946;-68
2023/01/11 07:32:39;;;;;;;8.80;3.60;;;;;;;-5.72;52.87;101913.13;104843;1267;62400;-67
2023/01/11 07:35:06;;;;;;;7.90;2.70;;;;;;;-5.76;53.10;101914.78;104908;1264;61426;-65
2023/01/11 07:37:36;;;;;;;6.00;2.10;;;;;;;-5.81;53.29;101913.19;104860;1264;75198;-66
2023/01/11 07:40:03;;;;;;;12.50;2.20;;;;;;;-5.76;53.46;101916.84;104717;1267;72935;-67
2023/01/11 07:45:16;;;;;;;6.70;1.70;;;;;;;-5.59;53.50;101909.35;104730;1266;63621;-65
2023/01/11 07:47:43;;;;;;;8.00;1.80;;;;;;;-5.51;53.46;101908.06;104959;1262;61468;-67
2023/01/11 07:50:10;;;;;;;6.10;1.40;;;;;;;-5.43;53.31;101909.85;104786;1267;75331;-65
2023/01/11 07:52:37;;;;;;;7.80;2.20;;;;;;;-5.37;53.33;101912.30;105047;1266;72408;-66
2023/01/11 07:55:04;;;;;;;7.40;2.50;;;;;;;-5.25;53.34;101912.59;104686;1265;74849;-66
2023/01/11 07:57:31;;;;;;;5.80;2.10;;;;;;;-5.14;53.17;101906.73;105057;1264;60718;-65
2023/01/11 07:59:58;;;;;;;6.90;2.50;;;;;;;-5.13;52.77;101914.60;104633;1268;61414;-66
2023/01/11 08:02:37;;;;;;;8.30;2.40;;;;;;;-5.16;52.75;101914.41;105095;1263;74323;-66
2023/01/11 08:05:05;;;;;;;9.20;2.80;;;;;;;-5.13;52.86;101918.54;105247;1267;70394;-66
2023/01/11 08:07:34;;;;;;;6.80;2.10;;;;;;;-5.13;52.72;101925.90;105197;1264;74066;-66
2023/01/11 08:10:02;;;;;;;6.20;1.80;;;;;;;-5.17;52.55;101931.15;105448;1263;62062;-65
2023/01/11 08:15:17;;;;;;;5.00;1.30;;;;;;;-5.31;52.38;101931.53;104564;1264;75739;-66
2023/01/11 08:17:44;;;;;;;8.30;2.90;;;;;;;-5.35;52.63;101930.81;104584;1266;72799;-65
2023/01/11 08:20:11;;;;;;;7.90;3.60;;;;;;;-5.39;52.89;101930.94;104682;1263;75174;-65
2023/01/11 08:22:38;;;;;;;7.70;2.10;;;;;;;-5.41;53.00;101933.83;104761;1263;62511;-65
2023/01/11 08:25:06;;;;;;;7.20;2.50;;;;;;;-5.43;53.07;101941.32;104820;1265;62147;-66
2023/01/11 08:27:33;;;;;;;11.30;3.40;;;;;;;-5.44;53.25;101941.65;105056;1263;75054;-66
2023/01/11 08:29:59;;;;;;;7.80;2.90;;;;;;;-5.45;53.21;101945.06;104843;1263;72376;-65
2023/01/11 08:32:27;;;;;;;5.90;2.30;;;;;;;-5.44;53.20;101936.86;104702;1264;73711;-66
2023/01/11 08:34:55;;;;;;;8.20;3.00;;;;;;;-5.42;53.21;101937.92;104824;1262;62552;-66
2023/01/11 08:37:22;;;;;;;10.00;3.60;;;;;;;-5.40;53.30;101935.04;104897;1266;62815;-66
2023/01/11 08:39:50;;;;;;;7.10;1.80;;;;;;;-5.38;53.41;101932.32;104935;1263;75436;-65
2023/01/11 08:42:17;;;;;;;7.90;2.10;;;;;;;-5.27;53.37;101937.75;104853;1267;72275;-66
2023/01/11 08:44:43;;;;;;;5.60;1.50;;;;;;;-5.11;53.22;101929.86;104789;1262;73561;-65
2023/01/11 08:47:10;;;;;;;5.50;1.90;;;;;;;-4.96;53.19;101920.73;104705;1263;62087;-65
2023/01/11 08:49:39;;;;;;;10.00;1.70;;;;;;;-4.82;52.90;101911.45;105020;1267;62198;-66
2023/01/11 08:52:06;;;;;;;7.90;2.10;;;;;;;-4.68;52.80;101901.80;104800;1263;75099;-66
2023/01/11 08:54:33;;;;;;;4.70;1.60;;;;;;;-4.53;52.48;101898.65;104834;1267;72317;-66
2023/01/11 08:56:59;;;;;;;7.40;1.80;;;;;;;-4.36;52.15;101899.27;104756;1263;74829;-67
2023/01/11 08:59:29;;;;;;;8.70;3.00;;;;;;;-4.20;51.89;101898.49;105142;1263;63032;-66
2023/01/11 10:03:53;;;;;;;6.40;2.90;;;;;;;-4.39;52.23;101855.39;102015;1297;603531;-66
2023/01/11 10:06:49;;;;;;;7.30;3.30;;;;;;;-4.26;52.03;101857.17;104487;1272;60111;-66
2023/01/11 10:09:29;;;;;;;7.80;3.10;;;;;;;-4.19;52.12;101849.84;104179;1272;62195;-66
2023/01/11 10:12:35;;;;;;;12.70;4.10;;;;;;;-4.14;51.91;101843.01;104370;1273;74640;-67
2023/01/11 10:15:50;;;;;;;13.10;4.00;;;;;;;-4.10;51.90;101836.17;104484;1272;71325;-67
2023/01/11 10:18:57;;;;;;;6.80;2.70;;;;;;;-4.02;52.11;101832.77;104338;1268;72804;-67
2023/01/11 10:21:53;;;;;;;6.50;2.40;;;;;;;-3.95;51.99;101832.45;104508;1268;62774;-67
2023/01/11 10:24:31;;;;;;;10.90;3.40;;;;;;;-3.88;51.84;101834.36;104574;1268;62447;-67
2023/01/11 10:27:00;;;;;;;14.80;4.40;;;;;;;-3.84;51.90;101829.23;104801;1268;74091;-67
2023/01/11 10:35:44;;;;;;;;;;;;;;;-3.78;51.29;101820.51;104683;1266;63426;-67
2023/01/11 10:41:03;;;;;;;7.80;3.00;;;;;;;-3.75;51.63;101803.87;104844;1266;74036;-66
2023/01/11 10:43:36;;;;;;;10.90;3.70;;;;;;;-3.68;51.73;101800.63;104791;1265;71377;-67
2023/01/11 10:46:17;;;;;;;6.60;2.60;;;;;;;-3.65;51.37;101792.73;104875;1266;73741;-67
2023/01/11 10:48:44;;;;;;;6.10;2.20;;;;;;;-3.64;51.34;101788.80;104866;1260;62716;-68
2023/01/11 10:51:28;;;;;;;9.90;2.70;;;;;;;-3.63;51.10;101782.10;104907;1266;62013;-67
2023/01/11 10:54:05;;;;;;;10.30;3.30;;;;;;;-3.66;51.17;101775.06;104693;1266;74874;-66
2023/01/11 10:56:35;;;;;;;9.30;3.50;;;;;;;-3.66;50.96;101773.53;104855;1273;72496;-67
2023/01/11 10:59:20;;;;;;;;;;;;;;;-3.65;51.07;101776.79;104762;1266;73768;-66
2023/01/11 11:01:51;;;;;;;8.50;2.10;;;;;;;-3.63;50.93;101784.16;104755;1265;61281;-67
2023/01/11 11:04:41;;;;;;;12.40;2.60;;;;;;;-3.64;50.91;101786.05;104820;1266;61395;-68
2023/01/11 11:07:24;;;;;;;7.50;2.20;;;;;;;-3.65;50.94;101785.70;104821;1261;75231;-67
2023/01/11 11:09:54;;;;;;;7.50;2.80;;;;;;;-3.67;51.09;101782.97;104707;1269;71091;-68
2023/01/11 11:12:24;;;;;;;7.60;3.30;;;;;;;-3.65;51.03;101781.94;104960;1266;74624;-67
2023/01/11 11:14:57;;;;;;;7.10;2.30;;;;;;;-3.62;50.91;101784.67;104696;1263;62271;-67
2023/01/11 11:17:32;;;;;;;5.80;2.50;;;;;;;-3.58;50.97;101782.98;104824;1266;62898;-67
2023/01/11 11:19:59;;;;;;;6.30;2.70;;;;;;;-3.53;50.88;101784.88;104890;1267;74302;-67
2023/01/11 11:22:26;;;;;;;8.50;3.50;;;;;;;-3.54;50.86;101789.84;104806;1269;71338;-66
2023/01/11 11:24:53;;;;;;;7.80;3.30;;;;;;;-3.55;50.74;101789.33;104731;1268;74849;-68
2023/01/11 11:27:28;;;;;;;10.60;3.50;;;;;;;-3.55;50.73;101779.20;104630;1268;62761;-66
2023/01/11 11:29:55;;;;;;;7.00;2.60;;;;;;;-3.54;50.97;101768.90;104763;1274;61917;-66
2023/01/11 11:32:30;;;;;;;7.30;2.70;;;;;;;-3.50;50.89;101771.48;104977;1265;74027;-66
2023/01/11 11:34:57;;;;;;;10.30;3.00;;;;;;;-3.48;50.84;101777.32;104698;1267;72741;-67
2023/01/11 11:37:34;;;;;;;7.70;3.00;;;;;;;-3.43;51.00;101778.88;104641;1264;73706;-67
2023/01/11 11:40:02;;;;;;;6.00;1.90;;;;;;;-3.36;50.87;101775.25;104788;1269;61342;-66
2023/01/11 11:42:29;;;;;;;7.90;2.90;;;;;;;-3.31;50.86;101772.00;104613;1266;61033;-67
2023/01/11 11:45:08;;;;;;;6.60;3.10;;;;;;;-3.31;50.81;101779.38;104784;1265;75574;-66
2023/01/11 11:47:36;;;;;;;7.30;3.10;;;;;;;-3.29;50.69;101780.76;104752;1275;70303;-67
2023/01/11 11:50:24;;;;;;;7.80;3.00;;;;;;;-3.29;50.47;101778.86;104781;1261;74676;-67
2023/01/11 11:53:15;;;;;;;8.10;2.80;;;;;;;-3.30;50.40;101778.52;104688;1268;61404;-68
2023/01/11 11:55:42;;;;;;;9.40;3.90;;;;;;;-3.31;50.50;101772.01;105044;1267;62459;-66
2023/01/11 11:58:11;;;;;;;8.20;3.10;;;;;;;-3.30;50.59;101777.50;104674;1267;75350;-69
2023/01/11 12:00:46;;;;;;;13.20;2.60;;;;;;;-3.27;50.59;101780.58;104728;1266;71397;-67
2023/01/11 15:20:16;;;;;;;10.50;4.70;;;;;;;-4.50;53.32;101848.84;106425;1263;72629;-62
2023/01/11 15:22:43;;;;;;;9.30;3.50;;;;;;;-4.51;53.41;101848.14;107746;1243;71021;-75
2023/01/11 15:25:27;;;;;;;8.20;3.60;;;;;;;-4.53;53.51;101849.84;107674;1247;73601;-74
2023/01/11 15:27:54;;;;;;;6.30;3.00;;;;;;;-4.56;53.71;101848.27;107602;1252;59748;-72
2023/01/11 15:30:27;;;;;;;8.30;3.00;;;;;;;-4.61;53.79;101845.17;107725;1245;60022;-73
2023/01/11 15:33:16;;;;;;;8.10;3.30;;;;;;;-4.63;53.78;101847.89;107707;1247;73654;-73
2023/01/11 15:35:56;;;;;;;8.70;2.60;;;;;;;-4.67;53.91;101843.07;107725;1247;70078;-73
2023/01/11 15:38:29;;;;;;;8.80;3.90;;;;;;;-4.70;53.99;101842.54;107675;1243;73684;-72
2023/01/11 15:40:56;;;;;;;11.20;3.90;;;;;;;-4.74;54.13;101836.19;107756;1243;60123;-73
2023/01/11 15:43:55;;;;;;;9.20;4.90;;;;;;;-4.76;54.27;101825.03;107620;1248;59955;-73
2023/01/11 15:46:54;;;;;;;10.10;3.60;;;;;;;-4.79;54.39;101821.94;107760;1249;73956;-74
2023/01/11 15:49:36;;;;;;;12.00;4.60;;;;;;;-4.82;54.55;101815.59;107707;1245;71412;-73
2023/01/11 15:52:26;;;;;;;9.80;4.10;;;;;;;-4.83;54.64;101807.88;107697;1245;73540;-74
2023/01/11 15:55:14;;;;;;;10.20;2.30;;;;;;;-4.83;54.79;101810.27;107625;1248;60606;-73
2023/01/11 15:58:03;;;;;;;8.60;2.70;;;;;;;-4.86;54.87;101807.52;107642;1247;60987;-75
2023/01/11 16:00:46;;;;;;;20.40;5.30;;;;;;;-4.88;55.08;101804.94;107603;1243;73681;-74
2023/01/11 16:03:52;;;;;;;7.20;2.70;;;;;;;-4.89;55.21;101808.88;107698;1243;71217;-75
2023/01/11 16:06:49;;;;;;;8.70;4.00;;;;;;;-4.87;55.35;101809.73;107785;1244;72638;-75
2023/01/11 16:09:21;;;;;;;12.50;5.30;;;;;;;-4.85;55.42;101813.51;107680;1243;60053;-80
2023/01/11 16:12:04;;;;;;;12.50;4.30;;;;;;;-4.83;55.49;101813.67;107708;1243;61657;-75
2023/01/11 16:14:40;;;;;;;12.50;4.80;;;;;;;-4.81;55.35;101819.86;107656;1248;73750;-78
2023/01/11 16:17:11;;;;;;;19.00;5.00;;;;;;;-4.81;55.34;101826.37;107726;1243;71078;-78
2023/01/11 16:19:41;;;;;;;18.40;6.80;;;;;;;-4.81;55.26;101828.77;107790;1243;73447;-76
2023/01/11 16:22:18;;;;;;;17.60;5.20;;;;;;;-4.79;55.19;101830.67;107938;1243;59992;-75
2023/01/11 16:24:46;;;;;;;10.10;4.10;;;;;;;-4.79;55.17;101827.75;107550;1251;59602;-76
2023/01/11 16:27:31;;;;;;;15.10;5.50;;;;;;;-4.79;55.16;101825.02;107771;1248;73847;-78
2023/01/11 16:29:58;;;;;;;10.50;3.90;;;;;;;-4.77;55.20;101826.58;107651;1243;70951;-75
2023/01/11 16:32:31;;;;;;;15.10;4.50;;;;;;;-4.76;55.12;101823.15;107677;1248;72319;-76
2023/01/11 16:34:59;;;;;;;10.90;5.40;;;;;;;-4.76;55.11;101829.30;107721;1248;60040;-76
2023/01/11 16:37:27;;;;;;;14.20;5.30;;;;;;;-4.75;55.13;101832.74;108157;1243;61173;-74
2023/01/11 16:40:16;;;;;;;14.50;4.80;;;;;;;-4.75;55.12;101831.20;107700;1247;73787;-74
2023/01/11 16:42:56;;;;;;;12.20;5.80;;;;;;;-4.75;55.16;101829.50;107673;1243;71203;-75
2023/01/11 16:45:25;;;;;;;10.70;4.40;;;;;;;-4.75;55.16;101831.55;107724;1248;73508;-73
2023/01/11 16:48:02;;;;;;;12.90;4.60;;;;;;;-4.76;55.10;101826.58;107658;1248;60078;-74
2023/01/11 16:50:29;;;;;;;14.60;6.30;;;;;;;-4.76;55.29;101825.36;107780;1244;61576;-73
2023/01/11 16:53:02;;;;;;;14.20;5.30;;;;;;;-4.76;55.37;101826.05;107560;1245;73889;-73
2023/01/11 16:55:39;;;;;;;15.20;4.70;;;;;;;-4.74;55.48;101829.16;107622;1243;70940;-74
2023/01/11 16:58:27;;;;;;;10.80;4.40;;;;;;;-4.73;55.53;101831.56;107754;1243;73460;-75
2023/01/11 17:00:59;;;;;;;10.90;5.50;;;;;;;-4.72;55.61;101833.27;107686;1249;61437;-74
2023/01/11 17:03:31;;;;;;;11.50;5.60;;;;;;;-4.73;55.65;101829.52;107673;1244;60051;-75
2023/01/11 17:06:04;;;;;;;13.30;4.70;;;;;;;-4.73;55.78;101825.73;107667;1247;73864;-74
2023/01/11 17:08:33;;;;;;;14.50;6.60;;;;;;;-4.73;55.79;101831.73;107740;1243;71186;-74
2023/01/11 17:11:09;;;;;;;11.70;3.90;;;;;;;-4.75;55.91;101832.58;108014;1244;73702;-74
2023/01/11 17:13:50;;;;;;;;;;;;;;;-4.76;55.87;101828.27;107842;1241;61522;-75
2023/01/11 17:16:23;;;;;;;10.60;3.40;;;;;;;-4.76;56.07;101824.35;107890;1242;60921;-79
2023/01/11 17:18:50;;;;;;;10.30;4.40;;;;;;;-4.79;56.09;101820.06;107792;1246;74040;-74
2023/01/11 17:21:25;;;;;;;14.50;5.70;;;;;;;-4.80;56.14;101812.52;107779;1240;71115;-76
2023/01/11 17:23:54;;;;;;;10.10;4.70;;;;;;;-4.83;56.14;101810.61;107894;1240;73676;-79
2023/01/11 17:26:23;;;;;;;10.30;3.70;;;;;;;-4.84;56.24;101815.05;107929;1245;60139;-74
2023/01/11 17:28:52;;;;;;;11.80;5.20;;;;;;;-4.88;56.42;101815.20;107922;1241;60927;-73
2023/01/11 17:31:24;;;;;;;11.50;3.80;;;;;;;-4.90;56.45;101815.88;107993;1242;73906;-73
2023/01/11 17:34:18;;;;;;;8.70;3.60;;;;;;;-4.88;56.44;101820.50;108058;1243;71081;-73
2023/01/11 17:36:46;;;;;;;11.30;3.60;;;;;;;-4.79;56.31;101822.79;107936;1240;73300;-74
2023/01/11 17:39:28;;;;;;;10.50;3.40;;;;;;;-4.72;56.15;101819.60;107837;1240;63239;-73
2023/01/11 17:47:30;;;;;;;10.50;2.80;;;;;;;-4.44;55.86;101817.16;107965;1240;71173;-76
2023/01/11 17:49:59;;;;;;;9.80;4.10;;;;;;;-4.34;55.81;101815.01;107953;1245;73875;-76
2023/01/11 17:52:26;;;;;;;12.60;5.00;;;;;;;-4.24;55.61;101813.66;108016;1241;60035;-75
2023/01/11 17:55:00;;;;;;;10.70;3.40;;;;;;;-4.18;55.43;101813.86;107747;1245;61103;-75
2023/01/11 17:57:27;;;;;;;11.70;2.80;;;;;;;-4.11;55.32;101810.63;108048;1245;72256;-76
2023/01/11 18:00:21;;;;;;;9.90;3.00;;;;;;;-4.11;55.19;101806.34;107967;1241;71152;-74
2023/01/11 18:02:48;;;;;;;12.00;5.60;;;;;;;-4.16;55.15;101802.89;107923;1240;73423;-74
2023/01/11 18:05:17;;;;;;;13.90;3.80;;;;;;;-4.20;55.14;101793.45;107941;1245;60090;-73
2023/01/11 18:07:53;;;;;;;8.10;2.90;;;;;;;-4.27;55.10;101787.60;108169;1240;61256;-73
2023/01/11 18:10:26;;;;;;;10.20;3.60;;;;;;;-4.41;55.07;101776.92;107976;1240;73896;-74
2023/01/11 18:12:55;;;;;;;10.80;3.40;;;;;;;-4.52;55.30;101779.27;107893;1248;69964;-74
2023/01/11 18:15:26;;;;;;;10.10;4.20;;;;;;;-4.58;55.48;101779.59;108017;1240;73513;-73
2023/01/11 18:17:55;;;;;;;8.20;3.40;;;;;;;-4.64;55.51;101775.45;107968;1245;61008;-73
2023/01/11 18:20:23;;;;;;;16.30;4.40;;;;;;;-4.71;55.68;101775.08;108031;1241;61125;-72
2023/01/11 18:23:15;;;;;;;9.80;3.70;;;;;;;-4.78;55.75;101774.17;107922;1244;73720;-72
2023/01/11 18:25:44;;;;;;;9.60;3.50;;;;;;;-4.87;55.99;101770.53;107988;1240;71167;-73
2023/01/11 18:28:20;;;;;;;13.80;4.60;;;;;;;-4.95;56.20;101771.85;107875;1245;72574;-73
2023/01/11 18:30:52;;;;;;;11.60;4.20;;;;;;;-5.00;56.46;101763.77;107931;1240;60960;-73
2023/01/11 18:33:21;;;;;;;14.90;4.40;;;;;;;-5.07;56.59;101757.39;107949;1241;59978;-74
2023/01/11 18:35:54;;;;;;;10.00;4.10;;;;;;;-5.10;56.80;101758.91;107927;1245;73669;-74